sensor_id;sensor_type;location;lat;lon;timestamp;pressure;altitude;pressure_sealevel;temperature;humidity
70053;BME280;57398;52.032;4.376;2024-03-25T00:00:49;100468.03;;;5.72;100.00
70053;BME280;57398;52.032;4.376;2024-03-25T00:03:35;100468.03;;;5.65;100.00
70053;BME280;57398;52.032;4.376;2024-03-25T00:06:22;100461.47;;;5.56;100.00
70053;BME280;57398;52.032;4.376;2024-03-25T00:09:09;100436.06;;;5.40;100.00
70053;BME280;57398;52.032;4.376;2024-03-25T00:11:59;100432.09;;;5.37;100.00
70053;BME280;57398;52.032;4.376;2024-03-25T00:14:47;100421.56;;;5.32;100.00
70053;BME280;57398;52.032;4.376;2024-03-25T00:17:34;100418.38;;;5.23;100.00
70053;BME280;57398;52.032;4.376;2024-03-25T00:20:20;100408.47;;;5.20;100.00
70053;BME280;57398;52.032;4.376;2024-03-25T00:23:07;100409.22;;;5.14;100.00
70053;BME280;57398;52.032;4.376;2024-03-25T00:25:54;100395.34;;;5.02;100.00
70053;BME280;57398;52.032;4.376;2024-03-25T00:28:41;100391.78;;;5.10;100.00
70053;BME280;57398;52.032;4.376;2024-03-25T00:31:28;100367.22;;;5.07;100.00
70053;BME280;57398;52.032;4.376;2024-03-25T00:34:15;100358.69;;;5.00;100.00
70053;BME280;57398;52.032;4.376;2024-03-25T00:37:02;100360.66;;;4.98;100.00
70053;BME280;57398;52.032;4.376;2024-03-25T00:39:49;100346.78;;;4.86;100.00
70053;BME280;57398;52.032;4.376;2024-03-25T00:42:35;100333.28;;;4.77;100.00
70053;BME280;57398;52.032;4.376;2024-03-25T00:45:23;100332.03;;;4.66;100.00
70053;BME280;57398;52.032;4.376;2024-03-25T00:48:12;100313.16;;;4.52;100.00
70053;BME280;57398;52.032;4.376;2024-03-25T00:50:59;100308.00;;;4.46;100.00
70053;BME280;57398;52.032;4.376;2024-03-25T00:53:45;100286.59;;;4.38;100.00
70053;BME280;57398;52.032;4.376;2024-03-25T00:56:33;100272.53;;;4.34;100.00
70053;BME280;57398;52.032;4.376;2024-03-25T00:59:19;100286.38;;;4.33;100.00
70053;BME280;57398;52.032;4.376;2024-03-25T01:02:06;100283.56;;;4.28;100.00
70053;BME280;57398;52.032;4.376;2024-03-25T01:04:55;100270.47;;;4.16;100.00
70053;BME280;57398;52.032;4.376;2024-03-25T01:07:42;100270.41;;;4.10;100.00
70053;BME280;57398;52.032;4.376;2024-03-25T01:10:29;100260.31;;;4.02;100.00
70053;BME280;57398;52.032;4.376;2024-03-25T01:13:16;100254.94;;;3.96;100.00
70053;BME280;57398;52.032;4.376;2024-03-25T01:16:02;100247.97;;;3.90;100.00
70053;BME280;57398;52.032;4.376;2024-03-25T01:18:49;100228.22;;;3.91;100.00
70053;BME280;57398;52.032;4.376;2024-03-25T01:21:37;100219.53;;;3.92;100.00
70053;BME280;57398;52.032;4.376;2024-03-25T01:24:24;100222.69;;;3.87;100.00
70053;BME280;57398;52.032;4.376;2024-03-25T01:27:11;100210.97;;;3.78;100.00
70053;BME280;57398;52.032;4.376;2024-03-25T01:29:58;100201.00;;;3.68;100.00
70053;BME280;57398;52.032;4.376;2024-03-25T01:32:44;100215.41;;;3.63;100.00
70053;BME280;57398;52.032;4.376;2024-03-25T01:35:32;100211.94;;;3.49;100.00
70053;BME280;57398;52.032;4.376;2024-03-25T01:38:21;100181.22;;;3.34;100.00
70053;BME280;57398;52.032;4.376;2024-03-25T01:41:07;100164.38;;;3.25;100.00
70053;BME280;57398;52.032;4.376;2024-03-25T01:43:55;100159.41;;;3.17;100.00
70053;BME280;57398;52.032;4.376;2024-03-25T01:46:42;100144.41;;;3.20;100.00
70053;BME280;57398;52.032;4.376;2024-03-25T01:49:28;100092.16;;;3.28;100.00
70053;BME280;57398;52.032;4.376;2024-03-25T01:52:16;100068.09;;;3.35;100.00
70053;BME280;57398;52.032;4.376;2024-03-25T01:55:04;100057.25;;;3.40;100.00
70053;BME280;57398;52.032;4.376;2024-03-25T01:57:52;100036.00;;;3.53;100.00
70053;BME280;57398;52.032;4.376;2024-03-25T02:00:38;100013.88;;;3.59;100.00
70053;BME280;57398;52.032;4.376;2024-03-25T02:03:27;100008.34;;;3.62;100.00
70053;BME280;57398;52.032;4.376;2024-03-25T02:06:15;99993.75;;;3.62;100.00
70053;BME280;57398;52.032;4.376;2024-03-25T02:09:04;99999.66;;;3.56;100.00
70053;BME280;57398;52.032;4.376;2024-03-25T02:11:52;100002.03;;;3.58;100.00
70053;BME280;57398;52.032;4.376;2024-03-25T02:14:40;99961.16;;;3.63;100.00
70053;BME280;57398;52.032;4.376;2024-03-25T02:17:26;99928.38;;;3.65;100.00
70053;BME280;57398;52.032;4.376;2024-03-25T02:20:14;99926.16;;;3.62;100.00
70053;BME280;57398;52.032;4.376;2024-03-25T02:23:01;99923.59;;;3.55;100.00
70053;BME280;57398;52.032;4.376;2024-03-25T02:25:51;99939.19;;;3.47;100.00
70053;BME280;57398;52.032;4.376;2024-03-25T02:28:37;99920.63;;;3.45;100.00
70053;BME280;57398;52.032;4.376;2024-03-25T02:31:24;99905.97;;;3.39;100.00
70053;BME280;57398;52.032;4.376;2024-03-25T02:34:10;99914.84;;;3.36;100.00
70053;BME280;57398;52.032;4.376;2024-03-25T02:36:57;99928.84;;;3.27;100.00
70053;BME280;57398;52.032;4.376;2024-03-25T02:39:44;99920.75;;;3.23;100.00
70053;BME280;57398;52.032;4.376;2024-03-25T02:42:32;99937.88;;;3.16;100.00
70053;BME280;57398;52.032;4.376;2024-03-25T02:45:19;99938.06;;;3.08;100.00
70053;BME280;57398;52.032;4.376;2024-03-25T02:48:06;99950.25;;;2.99;100.00
70053;BME280;57398;52.032;4.376;2024-03-25T02:50:52;99925.78;;;2.97;100.00
70053;BME280;57398;52.032;4.376;2024-03-25T02:53:39;99913.91;;;2.89;100.00
70053;BME280;57398;52.032;4.376;2024-03-25T02:56:26;99932.63;;;2.83;100.00
70053;BME280;57398;52.032;4.376;2024-03-25T02:59:14;99943.00;;;2.75;100.00
70053;BME280;57398;52.032;4.376;2024-03-25T03:02:00;99920.72;;;2.68;100.00
70053;BME280;57398;52.032;4.376;2024-03-25T03:04:47;99897.94;;;2.59;100.00
70053;BME280;57398;52.032;4.376;2024-03-25T03:07:34;99887.88;;;2.50;100.00
70053;BME280;57398;52.032;4.376;2024-03-25T03:10:21;99877.78;;;2.49;100.00
70053;BME280;57398;52.032;4.376;2024-03-25T03:13:07;99873.22;;;2.44;100.00
70053;BME280;57398;52.032;4.376;2024-03-25T03:15:57;99857.44;;;2.41;100.00
70053;BME280;57398;52.032;4.376;2024-03-25T03:18:43;99858.38;;;2.33;100.00
70053;BME280;57398;52.032;4.376;2024-03-25T03:21:30;99849.28;;;2.30;100.00
70053;BME280;57398;52.032;4.376;2024-03-25T03:24:17;99846.16;;;2.35;100.00
70053;BME280;57398;52.032;4.376;2024-03-25T03:27:04;99845.56;;;2.33;100.00
70053;BME280;57398;52.032;4.376;2024-03-25T03:29:50;99835.88;;;2.28;100.00
70053;BME280;57398;52.032;4.376;2024-03-25T03:32:39;99843.50;;;2.22;100.00
70053;BME280;57398;52.032;4.376;2024-03-25T03:35:25;99841.53;;;2.17;100.00
70053;BME280;57398;52.032;4.376;2024-03-25T03:38:12;99834.44;;;2.19;100.00
70053;BME280;57398;52.032;4.376;2024-03-25T03:40:58;99836.00;;;2.14;100.00
70053;BME280;57398;52.032;4.376;2024-03-25T03:43:46;99841.84;;;2.07;100.00
70053;BME280;57398;52.032;4.376;2024-03-25T03:46:32;99845.34;;;2.00;100.00
70053;BME280;57398;52.032;4.376;2024-03-25T03:49:21;99837.84;;;1.98;100.00
70053;BME280;57398;52.032;4.376;2024-03-25T03:52:07;99835.06;;;1.93;100.00
70053;BME280;57398;52.032;4.376;2024-03-25T03:54:54;99835.63;;;1.88;100.00
70053;BME280;57398;52.032;4.376;2024-03-25T03:57:40;99833.06;;;1.88;100.00
70053;BME280;57398;52.032;4.376;2024-03-25T04:00:28;99829.50;;;1.89;100.00
70053;BME280;57398;52.032;4.376;2024-03-25T04:03:15;99827.16;;;1.88;100.00
70053;BME280;57398;52.032;4.376;2024-03-25T04:06:09;99828.28;;;1.85;100.00
70053;BME280;57398;52.032;4.376;2024-03-25T04:08:57;99816.59;;;1.76;100.00
70053;BME280;57398;52.032;4.376;2024-03-25T04:11:44;99818.38;;;1.76;100.00
70053;BME280;57398;52.032;4.376;2024-03-25T04:14:31;99820.53;;;1.72;100.00
70053;BME280;57398;52.032;4.376;2024-03-25T04:17:19;99819.16;;;1.76;100.00
70053;BME280;57398;52.032;4.376;2024-03-25T04:20:06;99807.41;;;1.82;100.00
70053;BME280;57398;52.032;4.376;2024-03-25T04:22:57;99799.91;;;1.80;100.00
70053;BME280;57398;52.032;4.376;2024-03-25T04:25:45;99814.03;;;1.76;100.00
70053;BME280;57398;52.032;4.376;2024-03-25T04:28:32;99801.56;;;1.66;100.00
70053;BME280;57398;52.032;4.376;2024-03-25T04:31:19;99807.25;;;1.62;100.00
70053;BME280;57398;52.032;4.376;2024-03-25T04:34:06;99808.22;;;1.61;100.00
70053;BME280;57398;52.032;4.376;2024-03-25T04:36:52;99817.06;;;1.58;100.00
70053;BME280;57398;52.032;4.376;2024-03-25T04:39:42;99802.22;;;1.47;100.00
70053;BME280;57398;52.032;4.376;2024-03-25T04:42:28;99796.53;;;1.52;100.00
70053;BME280;57398;52.032;4.376;2024-03-25T04:45:14;99798.84;;;1.46;100.00
70053;BME280;57398;52.032;4.376;2024-03-25T04:48:01;99805.50;;;1.41;100.00
70053;BME280;57398;52.032;4.376;2024-03-25T04:50:47;99820.25;;;1.39;100.00
70053;BME280;57398;52.032;4.376;2024-03-25T04:53:33;99829.50;;;1.40;100.00
70053;BME280;57398;52.032;4.376;2024-03-25T04:56:21;99833.03;;;1.39;100.00
70053;BME280;57398;52.032;4.376;2024-03-25T04:59:07;99839.69;;;1.33;100.00
70053;BME280;57398;52.032;4.376;2024-03-25T05:01:53;99852.56;;;1.25;100.00
70053;BME280;57398;52.032;4.376;2024-03-25T05:04:39;99872.34;;;1.16;100.00
70053;BME280;57398;52.032;4.376;2024-03-25T05:07:26;99869.56;;;1.11;100.00
70053;BME280;57398;52.032;4.376;2024-03-25T05:10:12;99870.88;;;1.07;100.00
70053;BME280;57398;52.032;4.376;2024-03-25T05:12:59;99865.75;;;1.07;100.00
70053;BME280;57398;52.032;4.376;2024-03-25T05:15:49;99864.97;;;1.07;100.00
70053;BME280;57398;52.032;4.376;2024-03-25T05:18:36;99867.53;;;1.07;100.00
70053;BME280;57398;52.032;4.376;2024-03-25T05:21:22;99860.22;;;1.03;100.00
70053;BME280;57398;52.032;4.376;2024-03-25T05:24:08;99861.38;;;1.01;100.00
70053;BME280;57398;52.032;4.376;2024-03-25T05:26:54;99846.47;;;1.04;100.00
70053;BME280;57398;52.032;4.376;2024-03-25T05:29:42;99844.69;;;1.05;100.00
70053;BME280;57398;52.032;4.376;2024-03-25T05:32:28;99828.38;;;1.06;100.00
70053;BME280;57398;52.032;4.376;2024-03-25T05:35:14;99822.47;;;1.06;100.00
70053;BME280;57398;52.032;4.376;2024-03-25T05:38:00;99824.44;;;1.03;100.00
70053;BME280;57398;52.032;4.376;2024-03-25T05:40:46;99817.72;;;1.02;100.00
70053;BME280;57398;52.032;4.376;2024-03-25T05:43:33;99797.31;;;1.09;100.00
70053;BME280;57398;52.032;4.376;2024-03-25T05:46:20;99785.09;;;1.04;100.00
70053;BME280;57398;52.032;4.376;2024-03-25T05:49:06;99788.63;;;1.03;100.00
70053;BME280;57398;52.032;4.376;2024-03-25T05:51:53;99780.56;;;1.07;100.00
70053;BME280;57398;52.032;4.376;2024-03-25T05:54:39;99781.75;;;1.04;100.00
70053;BME280;57398;52.032;4.376;2024-03-25T05:57:25;99799.94;;;0.94;100.00
70053;BME280;57398;52.032;4.376;2024-03-25T06:00:12;99811.56;;;0.97;100.00
70053;BME280;57398;52.032;4.376;2024-03-25T06:03:00;99806.63;;;0.95;100.00
70053;BME280;57398;52.032;4.376;2024-03-25T06:05:46;99809.78;;;0.97;100.00
70053;BME280;57398;52.032;4.376;2024-03-25T06:08:33;99803.69;;;0.98;100.00
70053;BME280;57398;52.032;4.376;2024-03-25T06:11:19;99807.47;;;1.02;100.00
70053;BME280;57398;52.032;4.376;2024-03-25T06:14:05;99804.31;;;1.00;100.00
70053;BME280;57398;52.032;4.376;2024-03-25T06:16:51;99793.75;;;1.03;100.00
70053;BME280;57398;52.032;4.376;2024-03-25T06:19:39;99779.00;;;1.06;100.00
70053;BME280;57398;52.032;4.376;2024-03-25T06:22:25;99772.53;;;1.10;100.00
70053;BME280;57398;52.032;4.376;2024-03-25T06:25:12;99765.13;;;1.15;100.00
70053;BME280;57398;52.032;4.376;2024-03-25T06:27:58;99745.56;;;1.29;100.00
70053;BME280;57398;52.032;4.376;2024-03-25T06:30:45;99740.63;;;1.27;100.00
70053;BME280;57398;52.032;4.376;2024-03-25T06:33:50;99738.31;;;1.32;100.00
70053;BME280;57398;52.032;4.376;2024-03-25T06:36:56;99746.81;;;1.39;100.00
70053;BME280;57398;52.032;4.376;2024-03-25T06:39:42;99729.94;;;1.45;100.00
70053;BME280;57398;52.032;4.376;2024-03-25T06:42:28;99738.28;;;1.54;100.00
70053;BME280;57398;52.032;4.376;2024-03-25T06:45:15;99773.78;;;1.63;100.00
70053;BME280;57398;52.032;4.376;2024-03-25T06:48:01;99761.03;;;1.70;100.00
70053;BME280;57398;52.032;4.376;2024-03-25T06:50:54;99744.44;;;1.94;100.00
70053;BME280;57398;52.032;4.376;2024-03-25T06:53:42;99738.22;;;2.10;100.00
70053;BME280;57398;52.032;4.376;2024-03-25T06:56:28;99729.03;;;2.29;100.00
70053;BME280;57398;52.032;4.376;2024-03-25T06:59:14;99706.81;;;2.49;100.00
70053;BME280;57398;52.032;4.376;2024-03-25T07:02:01;99687.56;;;2.73;100.00
70053;BME280;57398;52.032;4.376;2024-03-25T07:04:47;99675.38;;;2.96;100.00
70053;BME280;57398;52.032;4.376;2024-03-25T07:07:33;99660.19;;;3.14;100.00
70053;BME280;57398;52.032;4.376;2024-03-25T07:10:21;99656.81;;;3.20;100.00
70053;BME280;57398;52.032;4.376;2024-03-25T07:13:07;99637.03;;;3.34;100.00
70053;BME280;57398;52.032;4.376;2024-03-25T07:15:54;99631.88;;;3.54;100.00
70053;BME280;57398;52.032;4.376;2024-03-25T07:18:40;99618.41;;;3.72;100.00
70053;BME280;57398;52.032;4.376;2024-03-25T07:21:26;99612.66;;;3.76;100.00
70053;BME280;57398;52.032;4.376;2024-03-25T07:24:12;99613.19;;;3.92;100.00
70053;BME280;57398;52.032;4.376;2024-03-25T07:27:00;99617.50;;;3.98;100.00
70053;BME280;57398;52.032;4.376;2024-03-25T07:29:46;99619.06;;;4.06;100.00
70053;BME280;57398;52.032;4.376;2024-03-25T07:32:32;99626.69;;;4.19;100.00
70053;BME280;57398;52.032;4.376;2024-03-25T07:35:18;99619.44;;;4.41;100.00
70053;BME280;57398;52.032;4.376;2024-03-25T07:38:05;99637.81;;;4.45;100.00
70053;BME280;57398;52.032;4.376;2024-03-25T07:40:51;99631.41;;;4.60;100.00
70053;BME280;57398;52.032;4.376;2024-03-25T07:43:38;99623.78;;;4.72;100.00
70053;BME280;57398;52.032;4.376;2024-03-25T07:46:26;99640.53;;;4.81;100.00
70053;BME280;57398;52.032;4.376;2024-03-25T07:49:13;99653.38;;;4.88;100.00
70053;BME280;57398;52.032;4.376;2024-03-25T07:51:59;99652.88;;;4.98;100.00
70053;BME280;57398;52.032;4.376;2024-03-25T07:54:45;99659.16;;;5.09;100.00
70053;BME280;57398;52.032;4.376;2024-03-25T07:57:32;99663.38;;;5.21;100.00
70053;BME280;57398;52.032;4.376;2024-03-25T08:00:20;99681.00;;;5.24;100.00
70053;BME280;57398;52.032;4.376;2024-03-25T08:03:06;99675.13;;;5.36;100.00
70053;BME280;57398;52.032;4.376;2024-03-25T08:05:52;99677.88;;;5.41;100.00
70053;BME280;57398;52.032;4.376;2024-03-25T08:08:38;99683.88;;;5.53;100.00
70053;BME280;57398;52.032;4.376;2024-03-25T08:11:25;99728.47;;;5.54;100.00
70053;BME280;57398;52.032;4.376;2024-03-25T08:14:11;99773.56;;;5.63;100.00
70053;BME280;57398;52.032;4.376;2024-03-25T08:16:58;99823.03;;;5.72;100.00
70053;BME280;57398;52.032;4.376;2024-03-25T08:19:45;99907.41;;;5.83;100.00
70053;BME280;57398;52.032;4.376;2024-03-25T08:22:31;99959.47;;;5.98;100.00
70053;BME280;57398;52.032;4.376;2024-03-25T08:25:17;99967.56;;;6.02;100.00
70053;BME280;57398;52.032;4.376;2024-03-25T08:28:04;99979.78;;;6.13;100.00
70053;BME280;57398;52.032;4.376;2024-03-25T08:30:50;100030.00;;;6.36;100.00
70053;BME280;57398;52.032;4.376;2024-03-25T08:33:38;100080.72;;;6.48;100.00
70053;BME280;57398;52.032;4.376;2024-03-25T08:36:24;100096.03;;;6.68;100.00
70053;BME280;57398;52.032;4.376;2024-03-25T08:39:10;100090.97;;;7.05;100.00
70053;BME280;57398;52.032;4.376;2024-03-25T08:41:56;100137.78;;;7.34;100.00
70053;BME280;57398;52.032;4.376;2024-03-25T08:44:43;100168.75;;;7.59;100.00
70053;BME280;57398;52.032;4.376;2024-03-25T08:47:29;100190.00;;;7.98;100.00
70053;BME280;57398;52.032;4.376;2024-03-25T08:50:16;100282.53;;;8.33;100.00
70053;BME280;57398;52.032;4.376;2024-03-25T08:53:03;100394.75;;;8.64;100.00
70053;BME280;57398;52.032;4.376;2024-03-25T08:55:50;100425.53;;;9.20;100.00
70053;BME280;57398;52.032;4.376;2024-03-25T08:58:36;100488.16;;;9.66;100.00
70053;BME280;57398;52.032;4.376;2024-03-25T09:01:22;100498.69;;;10.25;100.00
70053;BME280;57398;52.032;4.376;2024-03-25T09:04:08;100540.84;;;10.51;100.00
70053;BME280;57398;52.032;4.376;2024-03-25T09:06:56;100553.25;;;11.19;100.00
70053;BME280;57398;52.032;4.376;2024-03-25T09:09:42;100636.00;;;11.34;100.00
70053;BME280;57398;52.032;4.376;2024-03-25T09:12:47;100600.53;;;11.68;100.00
70053;BME280;57398;52.032;4.376;2024-03-25T09:15:33;100613.09;;;12.29;100.00
70053;BME280;57398;52.032;4.376;2024-03-25T09:18:19;100642.94;;;12.55;100.00
70053;BME280;57398;52.032;4.376;2024-03-25T09:21:06;100605.75;;;11.57;100.00
70053;BME280;57398;52.032;4.376;2024-03-25T09:23:53;100610.75;;;12.61;100.00
70053;BME280;57398;52.032;4.376;2024-03-25T09:26:40;100575.94;;;12.33;100.00
70053;BME280;57398;52.032;4.376;2024-03-25T09:29:26;100580.91;;;12.35;100.00
70053;BME280;57398;52.032;4.376;2024-03-25T09:32:12;100610.22;;;12.76;100.00
70053;BME280;57398;52.032;4.376;2024-03-25T09:34:59;100605.28;;;12.96;100.00
70053;BME280;57398;52.032;4.376;2024-03-25T09:37:45;100607.75;;;12.69;100.00
70053;BME280;57398;52.032;4.376;2024-03-25T09:40:35;100596.16;;;12.60;100.00
70053;BME280;57398;52.032;4.376;2024-03-25T09:43:25;100569.66;;;12.01;100.00
70053;BME280;57398;52.032;4.376;2024-03-25T09:46:12;100555.78;;;11.55;100.00
70053;BME280;57398;52.032;4.376;2024-03-25T09:48:58;100568.38;;;11.22;100.00
70053;BME280;57398;52.032;4.376;2024-03-25T09:51:44;100572.94;;;10.80;100.00
70053;BME280;57398;52.032;4.376;2024-03-25T09:54:31;100540.88;;;10.98;100.00
70053;BME280;57398;52.032;4.376;2024-03-25T09:57:19;100521.31;;;10.72;100.00
70053;BME280;57398;52.032;4.376;2024-03-25T10:00:08;100537.56;;;10.32;100.00
70053;BME280;57398;52.032;4.376;2024-03-25T10:02:54;100530.72;;;10.49;100.00
70053;BME280;57398;52.032;4.376;2024-03-25T10:05:41;100515.44;;;10.41;100.00
70053;BME280;57398;52.032;4.376;2024-03-25T10:08:27;100517.03;;;10.42;100.00
70053;BME280;57398;52.032;4.376;2024-03-25T10:11:15;100515.13;;;10.49;100.00
70053;BME280;57398;52.032;4.376;2024-03-25T10:14:03;100501.69;;;10.64;100.00
70053;BME280;57398;52.032;4.376;2024-03-25T10:16:49;100518.06;;;10.64;100.00
70053;BME280;57398;52.032;4.376;2024-03-25T10:19:35;100571.03;;;10.75;100.00
70053;BME280;57398;52.032;4.376;2024-03-25T10:22:21;100573.16;;;10.66;100.00
70053;BME280;57398;52.032;4.376;2024-03-25T10:25:19;100591.34;;;10.66;100.00
70053;BME280;57398;52.032;4.376;2024-03-25T10:28:06;100591.34;;;10.66;100.00
70053;BME280;57398;52.032;4.376;2024-03-25T10:30:53;100557.25;;;10.75;100.00
70053;BME280;57398;52.032;4.376;2024-03-25T10:33:40;100602.31;;;10.80;100.00
70053;BME280;57398;52.032;4.376;2024-03-25T10:36:26;100628.16;;;10.52;100.00
70053;BME280;57398;52.032;4.376;2024-03-25T10:39:13;100548.22;;;10.77;100.00
70053;BME280;57398;52.032;4.376;2024-03-25T10:42:01;100583.91;;;10.94;100.00
70053;BME280;57398;52.032;4.376;2024-03-25T10:44:48;100634.53;;;10.91;100.00
70053;BME280;57398;52.032;4.376;2024-03-25T10:47:37;100635.22;;;10.98;100.00
70053;BME280;57398;52.032;4.376;2024-03-25T10:50:26;100691.72;;;11.03;100.00
70053;BME280;57398;52.032;4.376;2024-03-25T10:53:16;100713.66;;;11.19;100.00
70053;BME280;57398;52.032;4.376;2024-03-25T10:56:03;100735.69;;;11.04;100.00
70053;BME280;57398;52.032;4.376;2024-03-25T10:58:52;100733.66;;;11.06;100.00
70053;BME280;57398;52.032;4.376;2024-03-25T11:01:39;100752.09;;;11.17;100.00
70053;BME280;57398;52.032;4.376;2024-03-25T11:04:27;100752.97;;;11.10;100.00
70053;BME280;57398;52.032;4.376;2024-03-25T11:07:14;100736.03;;;11.20;100.00
70053;BME280;57398;52.032;4.376;2024-03-25T11:10:05;100748.41;;;11.48;100.00
70053;BME280;57398;52.032;4.376;2024-03-25T11:12:54;100810.25;;;11.46;100.00
70053;BME280;57398;52.032;4.376;2024-03-25T11:15:41;100852.53;;;11.41;100.00
70053;BME280;57398;52.032;4.376;2024-03-25T11:18:28;100856.97;;;11.41;100.00
70053;BME280;57398;52.032;4.376;2024-03-25T11:21:24;100848.44;;;11.33;100.00
70053;BME280;57398;52.032;4.376;2024-03-25T11:24:11;100877.63;;;11.36;100.00
70053;BME280;57398;52.032;4.376;2024-03-25T11:26:57;100885.59;;;11.52;100.00
70053;BME280;57398;52.032;4.376;2024-03-25T11:29:44;100886.63;;;11.63;100.00
70053;BME280;57398;52.032;4.376;2024-03-25T11:32:30;100889.69;;;11.84;100.00
70053;BME280;57398;52.032;4.376;2024-03-25T11:35:27;100893.78;;;11.80;100.00
70053;BME280;57398;52.032;4.376;2024-03-25T11:38:15;100895.09;;;11.59;100.00
70053;BME280;57398;52.032;4.376;2024-03-25T11:41:02;100880.97;;;11.66;100.00
70053;BME280;57398;52.032;4.376;2024-03-25T11:43:48;100877.34;;;11.56;100.00
70053;BME280;57398;52.032;4.376;2024-03-25T11:46:36;100876.34;;;11.68;100.00
70053;BME280;57398;52.032;4.376;2024-03-25T11:49:23;100890.28;;;11.86;100.00
70053;BME280;57398;52.032;4.376;2024-03-25T11:52:09;100883.75;;;11.95;100.00
70053;BME280;57398;52.032;4.376;2024-03-25T11:54:57;100869.91;;;11.83;100.00
70053;BME280;57398;52.032;4.376;2024-03-25T11:57:43;100863.91;;;11.82;100.00
70053;BME280;57398;52.032;4.376;2024-03-25T12:00:30;100881.78;;;11.79;100.00
70053;BME280;57398;52.032;4.376;2024-03-25T12:03:16;100880.81;;;11.91;100.00
70053;BME280;57398;52.032;4.376;2024-03-25T12:06:03;100868.78;;;12.02;100.00
70053;BME280;57398;52.032;4.376;2024-03-25T12:08:50;100874.91;;;12.20;100.00
70053;BME280;57398;52.032;4.376;2024-03-25T12:11:52;100863.00;;;12.35;100.00
70053;BME280;57398;52.032;4.376;2024-03-25T12:14:38;100842.06;;;12.30;100.00
70053;BME280;57398;52.032;4.376;2024-03-25T12:17:25;100840.44;;;12.41;100.00
70053;BME280;57398;52.032;4.376;2024-03-25T12:20:11;100834.44;;;12.41;100.00
70053;BME280;57398;52.032;4.376;2024-03-25T12:22:58;100853.66;;;12.63;100.00
70053;BME280;57398;52.032;4.376;2024-03-25T12:25:48;100835.72;;;12.26;100.00
70053;BME280;57398;52.032;4.376;2024-03-25T12:28:36;100819.03;;;12.51;100.00
70053;BME280;57398;52.032;4.376;2024-03-25T12:31:23;100801.50;;;12.34;100.00
70053;BME280;57398;52.032;4.376;2024-03-25T12:34:10;100828.88;;;12.49;100.00
70053;BME280;57398;52.032;4.376;2024-03-25T12:37:00;100825.72;;;12.47;100.00
70053;BME280;57398;52.032;4.376;2024-03-25T12:39:47;100811.63;;;11.95;100.00
70053;BME280;57398;52.032;4.376;2024-03-25T12:42:33;100828.16;;;12.13;100.00
70053;BME280;57398;52.032;4.376;2024-03-25T12:45:21;100788.59;;;12.68;100.00
70053;BME280;57398;52.032;4.376;2024-03-25T12:48:07;100795.53;;;12.63;100.00
70053;BME280;57398;52.032;4.376;2024-03-25T12:50:54;100796.22;;;12.87;100.00
70053;BME280;57398;52.032;4.376;2024-03-25T12:53:40;100749.47;;;12.51;100.00
70053;BME280;57398;52.032;4.376;2024-03-25T12:56:26;100758.38;;;12.27;100.00
70053;BME280;57398;52.032;4.376;2024-03-25T12:59:13;100704.25;;;11.77;100.00
70053;BME280;57398;52.032;4.376;2024-03-25T13:02:00;100725.19;;;11.70;100.00
70053;BME280;57398;52.032;4.376;2024-03-25T13:04:47;100744.53;;;11.98;100.00
70053;BME280;57398;52.032;4.376;2024-03-25T13:07:33;100714.50;;;12.64;100.00
70053;BME280;57398;52.032;4.376;2024-03-25T13:10:19;100700.75;;;12.52;100.00
70053;BME280;57398;52.032;4.376;2024-03-25T13:13:05;100699.50;;;12.54;100.00
70053;BME280;57398;52.032;4.376;2024-03-25T13:15:51;100703.84;;;12.49;100.00
70053;BME280;57398;52.032;4.376;2024-03-25T13:18:39;100694.19;;;12.21;100.00
70053;BME280;57398;52.032;4.376;2024-03-25T13:21:25;100675.00;;;12.10;100.00
70053;BME280;57398;52.032;4.376;2024-03-25T13:24:11;100644.44;;;12.34;100.00
70053;BME280;57398;52.032;4.376;2024-03-25T13:26:57;100656.53;;;13.08;100.00
70053;BME280;57398;52.032;4.376;2024-03-25T13:29:44;100633.59;;;13.27;100.00
70053;BME280;57398;52.032;4.376;2024-03-25T13:32:30;100657.41;;;12.79;100.00
70053;BME280;57398;52.032;4.376;2024-03-25T13:35:18;100673.41;;;12.38;100.00
70053;BME280;57398;52.032;4.376;2024-03-25T13:38:04;100632.59;;;11.86;100.00
70053;BME280;57398;52.032;4.376;2024-03-25T13:40:50;100623.66;;;12.22;100.00
70053;BME280;57398;52.032;4.376;2024-03-25T13:43:42;100634.50;;;12.48;100.00
70053;BME280;57398;52.032;4.376;2024-03-25T13:46:28;100616.06;;;12.21;100.00
70053;BME280;57398;52.032;4.376;2024-03-25T13:49:14;100631.56;;;11.99;100.00
70053;BME280;57398;52.032;4.376;2024-03-25T13:52:02;100560.44;;;11.81;100.00
70053;BME280;57398;52.032;4.376;2024-03-25T13:54:49;100607.31;;;12.10;100.00
70053;BME280;57398;52.032;4.376;2024-03-25T13:57:35;100563.31;;;12.42;100.00
70053;BME280;57398;52.032;4.376;2024-03-25T14:00:21;100570.22;;;12.20;100.00
70053;BME280;57398;52.032;4.376;2024-03-25T14:03:08;100578.69;;;12.27;100.00
70053;BME280;57398;52.032;4.376;2024-03-25T14:05:54;100601.00;;;12.23;100.00
70053;BME280;57398;52.032;4.376;2024-03-25T14:08:41;100576.84;;;12.10;100.00
70053;BME280;57398;52.032;4.376;2024-03-25T14:11:28;100576.94;;;12.15;100.00
70053;BME280;57398;52.032;4.376;2024-03-25T14:14:14;100564.53;;;12.23;100.00
70053;BME280;57398;52.032;4.376;2024-03-25T14:17:00;100573.28;;;12.00;100.00
70053;BME280;57398;52.032;4.376;2024-03-25T14:19:46;100571.22;;;11.73;100.00
70053;BME280;57398;52.032;4.376;2024-03-25T14:22:33;100573.34;;;11.76;100.00
70053;BME280;57398;52.032;4.376;2024-03-25T14:25:20;100556.81;;;11.82;100.00
70053;BME280;57398;52.032;4.376;2024-03-25T14:28:06;100542.41;;;11.63;100.00
70053;BME280;57398;52.032;4.376;2024-03-25T14:30:52;100560.88;;;11.49;100.00
70053;BME280;57398;52.032;4.376;2024-03-25T14:33:39;100557.13;;;11.86;100.00